Rosanky, Texas
Current Conditions -  °F | °C
As of 4:15 PM on Friday 24 Oct 2014 (Local Time) from K3T5 Reporting Station
Clear Clear  
Wind Chill: 83°   Ceiling: Unl
Heat Index: 84°   Visibility: 10mi
Dew Point: 61°   Wind: 0mph
Humidity: 47%   Direction: NA
Pressure: 30.08"   Gusts: NA
Location:  29.93°N, 97.29°W
Report Text: K3T5 242115Z AUTO 00000KT 10SM CLR 29/16 A3008 RMK AO2 T02850163
Loading
Personal Weather Stations






























Interactive Weather Map
Tropical Storm Tracking
New forecast layout! Learn more

10-Day Weather Forecast

Advertisements
Track Severe Weather on mobile